sensor_id;sensor_type;location;lat;lon;timestamp;pressure;altitude;pressure_sealevel;temperature;humidity
50356;BME280;36264;51.296;-0.602;2022-10-23T00:01:26;100638.94;;;12.47;100.00
50356;BME280;36264;51.296;-0.602;2022-10-23T00:03:58;100640.72;;;12.47;100.00
50356;BME280;36264;51.296;-0.602;2022-10-23T00:06:24;100637.28;;;12.45;100.00
50356;BME280;36264;51.296;-0.602;2022-10-23T00:08:50;100632.16;;;12.43;100.00
50356;BME280;36264;51.296;-0.602;2022-10-23T00:11:19;100631.31;;;12.43;100.00
50356;BME280;36264;51.296;-0.602;2022-10-23T00:13:46;100634.75;;;12.43;100.00
50356;BME280;36264;51.296;-0.602;2022-10-23T00:16:12;100627.09;;;12.40;100.00
50356;BME280;36264;51.296;-0.602;2022-10-23T00:18:38;100627.81;;;12.44;100.00
50356;BME280;36264;51.296;-0.602;2022-10-23T00:21:05;100618.22;;;12.44;100.00
50356;BME280;36264;51.296;-0.602;2022-10-23T00:23:31;100624.34;;;12.43;100.00
50356;BME280;36264;51.296;-0.602;2022-10-23T00:25:56;100614.84;;;12.42;100.00
50356;BME280;36264;51.296;-0.602;2022-10-23T00:28:22;100611.38;;;12.42;100.00
50356;BME280;36264;51.296;-0.602;2022-10-23T00:30:47;100611.38;;;12.42;100.00
50356;BME280;36264;51.296;-0.602;2022-10-23T00:33:12;100603.56;;;12.42;100.00
50356;BME280;36264;51.296;-0.602;2022-10-23T00:35:39;100601.88;;;12.41;100.00
50356;BME280;36264;51.296;-0.602;2022-10-23T00:38:04;100600.13;;;12.41;100.00
50356;BME280;36264;51.296;-0.602;2022-10-23T00:40:30;100601.88;;;12.41;100.00
50356;BME280;36264;51.296;-0.602;2022-10-23T00:42:55;100595.84;;;12.40;100.00
50356;BME280;36264;51.296;-0.602;2022-10-23T00:45:29;100586.31;;;12.39;100.00
50356;BME280;36264;51.296;-0.602;2022-10-23T00:47:58;100584.59;;;12.38;100.00
50356;BME280;36264;51.296;-0.602;2022-10-23T00:50:25;100582.00;;;12.38;100.00
50356;BME280;36264;51.296;-0.602;2022-10-23T00:52:52;100578.50;;;12.39;100.00
50356;BME280;36264;51.296;-0.602;2022-10-23T00:55:19;100577.59;;;12.40;100.00
50356;BME280;36264;51.296;-0.602;2022-10-23T00:57:47;100568.09;;;12.39;100.00
50356;BME280;36264;51.296;-0.602;2022-10-23T01:00:17;100577.66;;;12.39;100.00
50356;BME280;36264;51.296;-0.602;2022-10-23T01:02:43;100579.34;;;12.40;100.00
50356;BME280;36264;51.296;-0.602;2022-10-23T01:05:09;100570.69;;;12.39;100.00
50356;BME280;36264;51.296;-0.602;2022-10-23T01:10:10;100557.47;;;12.44;100.00
50356;BME280;36264;51.296;-0.602;2022-10-23T01:15:52;100533.16;;;12.43;100.00
50356;BME280;36264;51.296;-0.602;2022-10-23T01:18:26;100515.09;;;12.40;100.00
50356;BME280;36264;51.296;-0.602;2022-10-23T01:21:05;100520.94;;;12.45;100.00
50356;BME280;36264;51.296;-0.602;2022-10-23T01:23:52;100526.94;;;12.47;100.00
50356;BME280;36264;51.296;-0.602;2022-10-23T01:26:39;100525.09;;;12.49;100.00
50356;BME280;36264;51.296;-0.602;2022-10-23T01:29:40;100523.16;;;12.55;100.00
50356;BME280;36264;51.296;-0.602;2022-10-23T01:32:23;100527.31;;;12.59;100.00
50356;BME280;36264;51.296;-0.602;2022-10-23T01:34:58;100522.81;;;12.62;100.00
50356;BME280;36264;51.296;-0.602;2022-10-23T01:37:33;100508.75;;;12.66;100.00
50356;BME280;36264;51.296;-0.602;2022-10-23T01:40:03;100496.50;;;12.68;100.00
50356;BME280;36264;51.296;-0.602;2022-10-23T01:42:34;100480.78;;;12.70;100.00
50356;BME280;36264;51.296;-0.602;2022-10-23T01:45:08;100478.13;;;12.72;100.00
50356;BME280;36264;51.296;-0.602;2022-10-23T01:47:37;100462.47;;;12.72;100.00
50356;BME280;36264;51.296;-0.602;2022-10-23T01:50:05;100465.03;;;12.73;100.00
50356;BME280;36264;51.296;-0.602;2022-10-23T01:52:32;100451.16;;;12.73;100.00
50356;BME280;36264;51.296;-0.602;2022-10-23T01:54:59;100449.38;;;12.73;100.00
50356;BME280;36264;51.296;-0.602;2022-10-23T01:57:28;100459.81;;;12.73;100.00
50356;BME280;36264;51.296;-0.602;2022-10-23T02:00:07;100461.50;;;12.74;100.00
50356;BME280;36264;51.296;-0.602;2022-10-23T02:02:35;100458.00;;;12.75;100.00
50356;BME280;36264;51.296;-0.602;2022-10-23T02:05:17;100464.81;;;12.78;100.00
50356;BME280;36264;51.296;-0.602;2022-10-23T02:07:45;100457.94;;;12.77;100.00
50356;BME280;36264;51.296;-0.602;2022-10-23T02:10:12;100472.56;;;12.79;100.00
50356;BME280;36264;51.296;-0.602;2022-10-23T02:13:06;100459.41;;;12.82;100.00
50356;BME280;36264;51.296;-0.602;2022-10-23T02:15:56;100456.78;;;12.82;100.00
50356;BME280;36264;51.296;-0.602;2022-10-23T02:21:03;100448.97;;;12.82;100.00
50356;BME280;36264;51.296;-0.602;2022-10-23T02:23:33;100439.44;;;12.81;100.00
50356;BME280;36264;51.296;-0.602;2022-10-23T02:26:05;100434.31;;;12.80;100.00
50356;BME280;36264;51.296;-0.602;2022-10-23T02:28:42;100431.81;;;12.78;100.00
50356;BME280;36264;51.296;-0.602;2022-10-23T02:31:13;100414.41;;;12.79;100.00
50356;BME280;36264;51.296;-0.602;2022-10-23T02:33:40;100402.28;;;12.78;100.00
50356;BME280;36264;51.296;-0.602;2022-10-23T02:36:06;100387.63;;;12.75;100.00
50356;BME280;36264;51.296;-0.602;2022-10-23T02:38:37;100391.84;;;12.78;100.00
50356;BME280;36264;51.296;-0.602;2022-10-23T02:41:18;100384.97;;;12.77;100.00
50356;BME280;36264;51.296;-0.602;2022-10-23T02:46:30;100372.91;;;12.74;100.00
50356;BME280;36264;51.296;-0.602;2022-10-23T02:49:10;100375.50;;;12.74;100.00
50356;BME280;36264;51.296;-0.602;2022-10-23T02:54:24;100350.28;;;12.75;100.00
50356;BME280;36264;51.296;-0.602;2022-10-23T02:57:02;100349.44;;;12.74;100.00
50356;BME280;36264;51.296;-0.602;2022-10-23T02:59:36;100340.81;;;12.74;100.00
50356;BME280;36264;51.296;-0.602;2022-10-23T03:02:09;100301.13;;;12.67;100.00
50356;BME280;36264;51.296;-0.602;2022-10-23T03:04:39;100304.25;;;12.75;100.00
50356;BME280;36264;51.296;-0.602;2022-10-23T03:07:11;100301.66;;;12.75;100.00
50356;BME280;36264;51.296;-0.602;2022-10-23T03:09:37;100299.88;;;12.76;100.00
50356;BME280;36264;51.296;-0.602;2022-10-23T03:12:02;100298.91;;;12.78;100.00
50356;BME280;36264;51.296;-0.602;2022-10-23T03:14:28;100285.75;;;12.80;100.00
50356;BME280;36264;51.296;-0.602;2022-10-23T03:16:53;100283.16;;;12.80;100.00
50356;BME280;36264;51.296;-0.602;2022-10-23T03:19:18;100277.94;;;12.80;100.00
50356;BME280;36264;51.296;-0.602;2022-10-23T03:21:44;100272.84;;;12.78;100.00
50356;BME280;36264;51.296;-0.602;2022-10-23T03:24:09;100275.25;;;12.81;100.00
50356;BME280;36264;51.296;-0.602;2022-10-23T03:26:34;100276.88;;;12.84;100.00
50356;BME280;36264;51.296;-0.602;2022-10-23T03:29:00;100270.78;;;12.85;100.00
50356;BME280;36264;51.296;-0.602;2022-10-23T03:31:25;100257.75;;;12.85;100.00
50356;BME280;36264;51.296;-0.602;2022-10-23T03:33:51;100255.06;;;12.86;100.00
50356;BME280;36264;51.296;-0.602;2022-10-23T03:36:16;100249.84;;;12.86;100.00
50356;BME280;36264;51.296;-0.602;2022-10-23T03:38:41;100247.16;;;12.88;100.00
50356;BME280;36264;51.296;-0.602;2022-10-23T03:41:07;100232.38;;;12.89;100.00
50356;BME280;36264;51.296;-0.602;2022-10-23T03:43:32;100228.22;;;12.84;100.00
50356;BME280;36264;51.296;-0.602;2022-10-23T03:45:57;100228.06;;;12.87;100.00
50356;BME280;36264;51.296;-0.602;2022-10-23T03:48:23;100214.19;;;12.87;100.00
50356;BME280;36264;51.296;-0.602;2022-10-23T03:50:49;100192.13;;;12.77;100.00
50356;BME280;36264;51.296;-0.602;2022-10-23T03:53:15;100207.22;;;12.87;100.00
50356;BME280;36264;51.296;-0.602;2022-10-23T03:55:40;100198.47;;;12.89;100.00
50356;BME280;36264;51.296;-0.602;2022-10-23T03:58:05;100195.88;;;12.89;100.00
50356;BME280;36264;51.296;-0.602;2022-10-23T04:00:31;100191.56;;;12.87;100.00
50356;BME280;36264;51.296;-0.602;2022-10-23T04:02:56;100179.31;;;12.90;100.00
50356;BME280;36264;51.296;-0.602;2022-10-23T04:05:22;100180.22;;;12.89;100.00
50356;BME280;36264;51.296;-0.602;2022-10-23T04:07:47;100179.31;;;12.90;100.00
50356;BME280;36264;51.296;-0.602;2022-10-23T04:10:12;100167.13;;;12.90;100.00
50356;BME280;36264;51.296;-0.602;2022-10-23T04:12:38;100159.31;;;12.90;100.00
50356;BME280;36264;51.296;-0.602;2022-10-23T04:15:03;100159.09;;;12.95;100.00
50356;BME280;36264;51.296;-0.602;2022-10-23T04:17:29;100153.78;;;12.96;100.00
50356;BME280;36264;51.296;-0.602;2022-10-23T04:19:54;100164.13;;;12.98;100.00
50356;BME280;36264;51.296;-0.602;2022-10-23T04:22:20;100188.28;;;13.01;100.00
50356;BME280;36264;51.296;-0.602;2022-10-23T04:24:45;100186.28;;;13.07;100.00
50356;BME280;36264;51.296;-0.602;2022-10-23T04:27:12;100180.00;;;13.11;100.00
50356;BME280;36264;51.296;-0.602;2022-10-23T04:29:37;100171.28;;;13.12;100.00
50356;BME280;36264;51.296;-0.602;2022-10-23T04:32:03;100164.44;;;13.09;100.00
50356;BME280;36264;51.296;-0.602;2022-10-23T04:34:28;100146.78;;;13.14;100.00
50356;BME280;36264;51.296;-0.602;2022-10-23T04:36:54;100138.88;;;13.16;100.00
50356;BME280;36264;51.296;-0.602;2022-10-23T04:39:19;100135.28;;;13.18;100.00
50356;BME280;36264;51.296;-0.602;2022-10-23T04:41:45;100142.09;;;13.21;100.00
50356;BME280;36264;51.296;-0.602;2022-10-23T04:44:10;100154.06;;;13.25;100.00
50356;BME280;36264;51.296;-0.602;2022-10-23T04:46:36;100167.78;;;13.29;100.00
50356;BME280;36264;51.296;-0.602;2022-10-23T04:49:01;100221.56;;;13.31;100.00
50356;BME280;36264;51.296;-0.602;2022-10-23T04:51:27;100206.06;;;13.28;100.00
50356;BME280;36264;51.296;-0.602;2022-10-23T04:53:52;100202.78;;;13.25;100.00
50356;BME280;36264;51.296;-0.602;2022-10-23T04:56:17;100196.03;;;13.20;100.00
50356;BME280;36264;51.296;-0.602;2022-10-23T04:58:43;100148.31;;;13.18;100.00
50356;BME280;36264;51.296;-0.602;2022-10-23T05:01:08;100124.09;;;13.16;100.00
50356;BME280;36264;51.296;-0.602;2022-10-23T05:03:35;100136.28;;;13.16;100.00
50356;BME280;36264;51.296;-0.602;2022-10-23T05:06:01;100165.81;;;13.16;100.00
50356;BME280;36264;51.296;-0.602;2022-10-23T05:08:27;100178.06;;;13.14;100.00
50356;BME280;36264;51.296;-0.602;2022-10-23T05:10:52;100159.81;;;13.14;100.00
50356;BME280;36264;51.296;-0.602;2022-10-23T05:13:18;100133.91;;;13.11;100.00
50356;BME280;36264;51.296;-0.602;2022-10-23T05:15:49;100146.03;;;13.12;100.00
50356;BME280;36264;51.296;-0.602;2022-10-23T05:18:36;100123.47;;;13.11;100.00
50356;BME280;36264;51.296;-0.602;2022-10-23T05:21:11;100091.44;;;13.09;100.00
50356;BME280;36264;51.296;-0.602;2022-10-23T05:23:40;100092.19;;;13.11;100.00
50356;BME280;36264;51.296;-0.602;2022-10-23T05:26:06;100081.75;;;13.11;100.00
50356;BME280;36264;51.296;-0.602;2022-10-23T05:28:32;100071.34;;;13.11;100.00
50356;BME280;36264;51.296;-0.602;2022-10-23T05:30:59;100057.53;;;13.09;100.00
50356;BME280;36264;51.296;-0.602;2022-10-23T05:33:26;100062.75;;;13.09;100.00
50356;BME280;36264;51.296;-0.602;2022-10-23T05:35:51;100066.13;;;13.11;100.00
50356;BME280;36264;51.296;-0.602;2022-10-23T05:38:17;100051.66;;;13.05;100.00
50356;BME280;36264;51.296;-0.602;2022-10-23T05:40:43;100063.59;;;13.10;100.00
50356;BME280;36264;51.296;-0.602;2022-10-23T05:43:08;100065.28;;;13.11;100.00
50356;BME280;36264;51.296;-0.602;2022-10-23T05:45:34;100061.06;;;13.08;100.00
50356;BME280;36264;51.296;-0.602;2022-10-23T05:47:59;100074.03;;;13.10;100.00
50356;BME280;36264;51.296;-0.602;2022-10-23T05:50:25;100064.84;;;13.02;100.00
50356;BME280;36264;51.296;-0.602;2022-10-23T05:52:50;100094.78;;;13.11;100.00
50356;BME280;36264;51.296;-0.602;2022-10-23T05:55:16;100104.47;;;13.09;100.00
50356;BME280;36264;51.296;-0.602;2022-10-23T05:57:41;100106.00;;;13.13;100.00
50356;BME280;36264;51.296;-0.602;2022-10-23T06:00:07;100109.44;;;13.14;100.00
50356;BME280;36264;51.296;-0.602;2022-10-23T06:02:33;100102.53;;;13.13;100.00
50356;BME280;36264;51.296;-0.602;2022-10-23T06:04:58;100095.59;;;13.13;100.00
50356;BME280;36264;51.296;-0.602;2022-10-23T06:07:25;100094.72;;;13.13;100.00
50356;BME280;36264;51.296;-0.602;2022-10-23T06:09:51;100090.44;;;13.12;100.00
50356;BME280;36264;51.296;-0.602;2022-10-23T06:12:18;100087.75;;;13.13;100.00
50356;BME280;36264;51.296;-0.602;2022-10-23T06:14:43;100085.16;;;13.13;100.00
50356;BME280;36264;51.296;-0.602;2022-10-23T06:17:08;100083.38;;;13.14;100.00
50356;BME280;36264;51.296;-0.602;2022-10-23T06:19:34;100073.78;;;13.14;100.00
50356;BME280;36264;51.296;-0.602;2022-10-23T06:21:59;100023.06;;;13.04;100.00
50356;BME280;36264;51.296;-0.602;2022-10-23T06:24:25;100025.09;;;13.15;100.00
50356;BME280;36264;51.296;-0.602;2022-10-23T06:26:50;99998.25;;;13.13;100.00
50356;BME280;36264;51.296;-0.602;2022-10-23T06:29:15;99969.66;;;13.11;100.00
50356;BME280;36264;51.296;-0.602;2022-10-23T06:31:41;99971.34;;;13.12;100.00
50356;BME280;36264;51.296;-0.602;2022-10-23T06:34:09;100007.84;;;13.12;100.00
50356;BME280;36264;51.296;-0.602;2022-10-23T06:36:35;100013.88;;;13.13;100.00
50356;BME280;36264;51.296;-0.602;2022-10-23T06:39:02;99989.59;;;13.12;100.00
50356;BME280;36264;51.296;-0.602;2022-10-23T06:41:28;100015.16;;;13.05;100.00
50356;BME280;36264;51.296;-0.602;2022-10-23T06:43:53;100026.19;;;13.11;100.00
50356;BME280;36264;51.296;-0.602;2022-10-23T06:46:19;100042.56;;;13.13;100.00
50356;BME280;36264;51.296;-0.602;2022-10-23T06:48:45;100038.22;;;13.13;100.00
50356;BME280;36264;51.296;-0.602;2022-10-23T06:51:13;100008.59;;;13.14;100.00
50356;BME280;36264;51.296;-0.602;2022-10-23T06:53:38;99982.38;;;13.17;100.00
50356;BME280;36264;51.296;-0.602;2022-10-23T06:56:06;99981.44;;;13.18;100.00
50356;BME280;36264;51.296;-0.602;2022-10-23T06:58:33;99981.44;;;13.18;100.00
50356;BME280;36264;51.296;-0.602;2022-10-23T07:01:00;99986.66;;;13.18;100.00
50356;BME280;36264;51.296;-0.602;2022-10-23T07:03:26;99986.59;;;13.20;100.00
50356;BME280;36264;51.296;-0.602;2022-10-23T07:05:51;99985.91;;;13.16;100.00
50356;BME280;36264;51.296;-0.602;2022-10-23T07:08:16;99988.25;;;13.21;100.00
50356;BME280;36264;51.296;-0.602;2022-10-23T07:10:42;99983.88;;;13.21;100.00
50356;BME280;36264;51.296;-0.602;2022-10-23T07:13:08;99986.66;;;13.18;100.00
50356;BME280;36264;51.296;-0.602;2022-10-23T07:15:34;99987.41;;;13.20;100.00
50356;BME280;36264;51.296;-0.602;2022-10-23T07:18:00;99991.72;;;13.21;100.00
50356;BME280;36264;51.296;-0.602;2022-10-23T07:20:25;99989.94;;;13.22;100.00
50356;BME280;36264;51.296;-0.602;2022-10-23T07:22:52;100001.19;;;13.22;100.00
50356;BME280;36264;51.296;-0.602;2022-10-23T07:25:19;99998.59;;;13.22;100.00
50356;BME280;36264;51.296;-0.602;2022-10-23T07:27:44;100007.19;;;13.25;100.00
50356;BME280;36264;51.296;-0.602;2022-10-23T07:30:11;100008.19;;;13.22;100.00
50356;BME280;36264;51.296;-0.602;2022-10-23T07:32:36;100021.06;;;13.25;100.00
50356;BME280;36264;51.296;-0.602;2022-10-23T07:35:02;100021.81;;;13.27;100.00
50356;BME280;36264;51.296;-0.602;2022-10-23T07:37:28;100009.63;;;13.28;100.00
50356;BME280;36264;51.296;-0.602;2022-10-23T07:39:54;100002.66;;;13.28;100.00
50356;BME280;36264;51.296;-0.602;2022-10-23T07:42:20;100000.88;;;13.29;100.00
50356;BME280;36264;51.296;-0.602;2022-10-23T07:44:45;99994.81;;;13.28;100.00
50356;BME280;36264;51.296;-0.602;2022-10-23T07:47:10;100000.69;;;13.32;100.00
50356;BME280;36264;51.296;-0.602;2022-10-23T07:49:36;99994.59;;;13.33;100.00
50356;BME280;36264;51.296;-0.602;2022-10-23T07:52:03;99981.69;;;13.30;100.00
50356;BME280;36264;51.296;-0.602;2022-10-23T07:54:29;99987.53;;;13.35;100.00
50356;BME280;36264;51.296;-0.602;2022-10-23T07:56:54;99990.13;;;13.35;100.00
50356;BME280;36264;51.296;-0.602;2022-10-23T07:59:19;99993.50;;;13.37;100.00
50356;BME280;36264;51.296;-0.602;2022-10-23T08:01:45;99991.66;;;13.39;100.00
50356;BME280;36264;51.296;-0.602;2022-10-23T08:04:12;99987.19;;;13.41;100.00
50356;BME280;36264;51.296;-0.602;2022-10-23T08:06:38;99990.38;;;13.46;100.00
50356;BME280;36264;51.296;-0.602;2022-10-23T08:09:03;99991.34;;;13.45;100.00
50356;BME280;36264;51.296;-0.602;2022-10-23T08:11:29;99986.88;;;13.47;100.00
50356;BME280;36264;51.296;-0.602;2022-10-23T08:14:00;100000.50;;;13.52;100.00
50356;BME280;36264;51.296;-0.602;2022-10-23T08:16:28;99990.72;;;13.56;100.00
50356;BME280;36264;51.296;-0.602;2022-10-23T08:18:54;99973.47;;;13.53;100.00
50356;BME280;36264;51.296;-0.602;2022-10-23T08:21:19;99987.34;;;13.54;100.00
50356;BME280;36264;51.296;-0.602;2022-10-23T08:23:45;99996.78;;;13.56;100.00
50356;BME280;36264;51.296;-0.602;2022-10-23T08:26:10;99983.75;;;13.56;100.00
50356;BME280;36264;51.296;-0.602;2022-10-23T08:28:36;99971.63;;;13.55;100.00
50356;BME280;36264;51.296;-0.602;2022-10-23T08:31:17;99965.66;;;13.53;100.00
50356;BME280;36264;51.296;-0.602;2022-10-23T08:33:43;99969.94;;;13.54;100.00
50356;BME280;36264;51.296;-0.602;2022-10-23T08:36:23;99974.41;;;13.52;100.00
50356;BME280;36264;51.296;-0.602;2022-10-23T08:38:49;99993.31;;;13.56;100.00
50356;BME280;36264;51.296;-0.602;2022-10-23T08:41:31;100003.69;;;13.57;100.00
50356;BME280;36264;51.296;-0.602;2022-10-23T08:44:21;100013.94;;;13.61;100.00
50356;BME280;36264;51.296;-0.602;2022-10-23T08:49:42;100008.56;;;13.64;100.00
50356;BME280;36264;51.296;-0.602;2022-10-23T08:52:27;100008.38;;;13.67;100.00
50356;BME280;36264;51.296;-0.602;2022-10-23T08:57:52;99997.69;;;13.71;100.00
50356;BME280;36264;51.296;-0.602;2022-10-23T09:00:21;100026.50;;;13.70;100.00
50356;BME280;36264;51.296;-0.602;2022-10-23T09:02:49;100029.09;;;13.70;100.00
50356;BME280;36264;51.296;-0.602;2022-10-23T09:05:16;100045.41;;;13.73;100.00
50356;BME280;36264;51.296;-0.602;2022-10-23T09:07:50;100041.06;;;13.74;100.00
50356;BME280;36264;51.296;-0.602;2022-10-23T09:10:30;100002.84;;;13.73;100.00
50356;BME280;36264;51.296;-0.602;2022-10-23T09:16:18;99850.59;;;13.58;100.00
50356;BME280;36264;51.296;-0.602;2022-10-23T09:18:48;99824.91;;;13.66;100.00
50356;BME280;36264;51.296;-0.602;2022-10-23T09:21:14;99826.59;;;13.67;100.00
50356;BME280;36264;51.296;-0.602;2022-10-23T09:23:40;99825.00;;;13.65;100.00
50356;BME280;36264;51.296;-0.602;2022-10-23T09:26:14;99848.22;;;13.69;100.00
50356;BME280;36264;51.296;-0.602;2022-10-23T09:31:12;99864.47;;;13.89;100.00
50356;BME280;36264;51.296;-0.602;2022-10-23T09:33:38;99884.91;;;13.97;100.00
50356;BME280;36264;51.296;-0.602;2022-10-23T09:36:17;99891.72;;;13.99;100.00
50356;BME280;36264;51.296;-0.602;2022-10-23T09:38:48;99900.19;;;14.03;100.00
50356;BME280;36264;51.296;-0.602;2022-10-23T09:41:28;99899.19;;;14.05;100.00
50356;BME280;36264;51.296;-0.602;2022-10-23T09:44:01;99901.72;;;14.07;100.00
50356;BME280;36264;51.296;-0.602;2022-10-23T09:49:01;99888.47;;;14.10;100.00
50356;BME280;36264;51.296;-0.602;2022-10-23T09:51:27;99880.06;;;14.19;100.00
50356;BME280;36264;51.296;-0.602;2022-10-23T09:53:55;99882.13;;;14.28;100.00
50356;BME280;36264;51.296;-0.602;2022-10-23T09:58:56;99886.25;;;14.32;100.00
50356;BME280;36264;51.296;-0.602;2022-10-23T10:01:28;99885.88;;;14.39;100.00
50356;BME280;36264;51.296;-0.602;2022-10-23T10:03:54;99886.44;;;14.44;100.00
50356;BME280;36264;51.296;-0.602;2022-10-23T10:06:22;99881.03;;;14.47;100.00
50356;BME280;36264;51.296;-0.602;2022-10-23T10:08:51;99888.50;;;14.53;100.00
50356;BME280;36264;51.296;-0.602;2022-10-23T10:11:42;99886.28;;;14.61;100.00
50356;BME280;36264;51.296;-0.602;2022-10-23T10:14:39;99887.94;;;14.77;100.00
50356;BME280;36264;51.296;-0.602;2022-10-23T10:22:49;99878.78;;;15.11;100.00
50356;BME280;36264;51.296;-0.602;2022-10-23T10:25:39;99864.88;;;15.11;100.00
50356;BME280;36264;51.296;-0.602;2022-10-23T10:28:41;99868.84;;;15.03;100.00
50356;BME280;36264;51.296;-0.602;2022-10-23T10:31:51;99864.66;;;15.01;100.00
50356;BME280;36264;51.296;-0.602;2022-10-23T10:34:36;99855.00;;;15.01;100.00
50356;BME280;36264;51.296;-0.602;2022-10-23T10:39:49;99866.56;;;15.12;100.00
50356;BME280;36264;51.296;-0.602;2022-10-23T10:42:23;99858.16;;;15.21;100.00
50356;BME280;36264;51.296;-0.602;2022-10-23T10:47:44;99863.72;;;15.29;100.00
50356;BME280;36264;51.296;-0.602;2022-10-23T10:50:18;99863.41;;;15.34;100.00
50356;BME280;36264;51.296;-0.602;2022-10-23T10:55:34;99856.59;;;15.31;100.00
50356;BME280;36264;51.296;-0.602;2022-10-23T10:58:08;99871.41;;;15.45;100.00
50356;BME280;36264;51.296;-0.602;2022-10-23T11:00:38;99869.31;;;15.50;100.00
50356;BME280;36264;51.296;-0.602;2022-10-23T11:03:29;99866.59;;;15.52;100.00
50356;BME280;36264;51.296;-0.602;2022-10-23T11:05:57;99854.13;;;15.55;100.00
50356;BME280;36264;51.296;-0.602;2022-10-23T11:08:33;99860.13;;;15.57;100.00
50356;BME280;36264;51.296;-0.602;2022-10-23T11:11:05;99853.94;;;15.58;100.00
50356;BME280;36264;51.296;-0.602;2022-10-23T11:13:40;99855.00;;;15.56;100.00
50356;BME280;36264;51.296;-0.602;2022-10-23T11:16:14;99851.94;;;15.62;100.00
50356;BME280;36264;51.296;-0.602;2022-10-23T11:18:44;99838.66;;;15.65;100.00
50356;BME280;36264;51.296;-0.602;2022-10-23T11:27:24;99832.53;;;15.79;100.00
50356;BME280;36264;51.296;-0.602;2022-10-23T11:35:18;99834.97;;;16.08;100.00
50356;BME280;36264;51.296;-0.602;2022-10-23T11:38:27;99836.63;;;16.22;100.00
50356;BME280;36264;51.296;-0.602;2022-10-23T11:40:57;99840.19;;;16.21;100.00
50356;BME280;36264;51.296;-0.602;2022-10-23T11:43:29;99830.56;;;16.21;100.00
50356;BME280;36264;51.296;-0.602;2022-10-23T11:45:55;99824.47;;;16.21;100.00
50356;BME280;36264;51.296;-0.602;2022-10-23T11:48:40;99828.25;;;16.17;100.00
50356;BME280;36264;51.296;-0.602;2022-10-23T11:51:25;99816.19;;;16.14;100.00
50356;BME280;36264;51.296;-0.602;2022-10-23T11:53:51;99808.66;;;16.09;100.00
50356;BME280;36264;51.296;-0.602;2022-10-23T12:01:54;99792.09;;;16.22;100.00
50356;BME280;36264;51.296;-0.602;2022-10-23T12:06:40;99776.78;;;16.28;100.00
50356;BME280;36264;51.296;-0.602;2022-10-23T12:14:37;99752.53;;;16.38;100.00
50356;BME280;36264;51.296;-0.602;2022-10-23T12:25:43;99734.28;;;16.12;100.00
50356;BME280;36264;51.296;-0.602;2022-10-23T12:30:45;99740.56;;;16.09;100.00
50356;BME280;36264;51.296;-0.602;2022-10-23T12:36:29;99724.28;;;16.17;100.00
50356;BME280;36264;51.296;-0.602;2022-10-23T12:39:00;99724.09;;;16.20;100.00
50356;BME280;36264;51.296;-0.602;2022-10-23T12:41:30;99714.00;;;16.27;100.00
50356;BME280;36264;51.296;-0.602;2022-10-23T12:44:00;99697.34;;;16.28;100.00
50356;BME280;36264;51.296;-0.602;2022-10-23T12:46:39;99695.50;;;16.41;100.00
50356;BME280;36264;51.296;-0.602;2022-10-23T12:49:22;99688.06;;;16.48;100.00
50356;BME280;36264;51.296;-0.602;2022-10-23T12:52:05;99689.47;;;16.52;100.00
50356;BME280;36264;51.296;-0.602;2022-10-23T12:54:32;99691.56;;;16.60;100.00
50356;BME280;36264;51.296;-0.602;2022-10-23T12:57:24;99688.47;;;16.66;100.00
50356;BME280;36264;51.296;-0.602;2022-10-23T12:59:55;99677.66;;;16.71;100.00
50356;BME280;36264;51.296;-0.602;2022-10-23T13:02:29;99667.28;;;16.69;100.00
50356;BME280;36264;51.296;-0.602;2022-10-23T13:04:57;99671.19;;;16.63;100.00
50356;BME280;36264;51.296;-0.602;2022-10-23T13:07:27;99664.56;;;16.71;100.00
50356;BME280;36264;51.296;-0.602;2022-10-23T13:09:53;99658.09;;;16.88;100.00
50356;BME280;36264;51.296;-0.602;2022-10-23T13:12:34;99656.66;;;16.95;100.00
50356;BME280;36264;51.296;-0.602;2022-10-23T13:17:46;99648.75;;;16.83;100.00
50356;BME280;36264;51.296;-0.602;2022-10-23T13:20:22;99645.25;;;16.72;100.00
50356;BME280;36264;51.296;-0.602;2022-10-23T13:22:52;99642.00;;;16.68;100.00
50356;BME280;36264;51.296;-0.602;2022-10-23T13:25:25;99633.69;;;16.74;100.00
50356;BME280;36264;51.296;-0.602;2022-10-23T13:28:46;99639.66;;;16.76;100.00
50356;BME280;36264;51.296;-0.602;2022-10-23T13:31:23;99638.13;;;16.85;100.00
50356;BME280;36264;51.296;-0.602;2022-10-23T13:36:27;99647.78;;;17.09;100.00
50356;BME280;36264;51.296;-0.602;2022-10-23T13:39:24;99635.94;;;17.14;100.00
50356;BME280;36264;51.296;-0.602;2022-10-23T13:41:49;99628.94;;;17.15;100.00
50356;BME280;36264;51.296;-0.602;2022-10-23T13:44:18;99624.75;;;17.12;100.00
50356;BME280;36264;51.296;-0.602;2022-10-23T13:46:44;99623.78;;;17.02;100.00
50356;BME280;36264;51.296;-0.602;2022-10-23T13:49:10;99616.84;;;16.90;100.00
50356;BME280;36264;51.296;-0.602;2022-10-23T13:51:41;99613.72;;;16.84;100.00
50356;BME280;36264;51.296;-0.602;2022-10-23T13:54:13;99604.69;;;16.89;100.00
50356;BME280;36264;51.296;-0.602;2022-10-23T13:56:39;99579.91;;;16.93;100.00
50356;BME280;36264;51.296;-0.602;2022-10-23T13:59:04;99569.66;;;17.01;100.00
50356;BME280;36264;51.296;-0.602;2022-10-23T14:01:33;99563.22;;;17.05;100.00
50356;BME280;36264;51.296;-0.602;2022-10-23T14:04:00;99565.84;;;17.05;100.00
50356;BME280;36264;51.296;-0.602;2022-10-23T14:06:28;99561.44;;;17.17;100.00
50356;BME280;36264;51.296;-0.602;2022-10-23T14:08:53;99555.00;;;17.32;100.00
50356;BME280;36264;51.296;-0.602;2022-10-23T14:11:19;99547.00;;;17.34;100.00
50356;BME280;36264;51.296;-0.602;2022-10-23T14:13:45;99539.97;;;17.34;100.00
50356;BME280;36264;51.296;-0.602;2022-10-23T14:16:12;99537.81;;;17.28;100.00
50356;BME280;36264;51.296;-0.602;2022-10-23T14:18:38;99536.53;;;17.23;100.00